Adirondack, NY

9:06 AM EDT on October 23, 2014 (GMT -0400)
KNYSCHRO2 | Change Station
CLOSE
Current Station
Personal Weather Station
Location: Schroon Lake, NY
Elevation: 263 m
Nearby Weather Stations

Elev 263 m 43.84 °N, 73.76 °W | Updated 7 seconds ago

Overcast
Overcast
7.3 °C
Feels Like 7 °C
N
1.4
Wind Variable Wind from NW
Gusts 4.0 km/h

Today
High -- | Low -- °C
--% Chance of Precip.
Yesterday
High -- | Low -- °C
Precip. -- mm
7:19 AM 5:58 PM
Waning Crescent, 0% visible
Pressure 1012 hPa
Visibility 16.1 kilometers
Clouds Mostly Cloudy 701 m
Mostly Cloudy 944 m
Overcast 1158 m
Windchill 7 °C
Dew Point 6 °C
Humidity 88%
Rainfall 1 mm
Snow Depth Not available.
UV 0 out of 12
Pollen .10 out of 12
Air Quality Not available.
Flu Activity Sporadic
METAR KGFL 231253Z AUTO 36012KT 10SM BKN023 BKN031 OVC038 08/06 A2987 RMK AO2 RAE22B44E49 SLP118 P0000 T00830056

More Conditions Fewer Conditions

Pressure 1012 hPa
Visibility 16.1 kilometers
Clouds Mostly Cloudy 701 m
Mostly Cloudy 944 m
Overcast 1158 m
Windchill 7 °C
Dew Point 6 °C
Humidity 88%
Rainfall 1 mm
Snow Depth Not available.
UV 0 out of 12
Pollen .10 out of 12
Air Quality Not available.
Flu Activity Sporadic
METAR KGFL 231253Z AUTO 36012KT 10SM BKN023 BKN031 OVC038 08/06 A2987 RMK AO2 RAE22B44E49 SLP118 P0000 T00830056

More Conditions Fewer Conditions

10-Day Weather Forecast

Almanac

Astronomy

Oct. 23, 2014 Rise Set
Actual Time 7:19 AM EDT 5:58 PM EDT
Civil Twilight 6:49 AM EDT 6:28 PM EDT
Nautical Twilight 6:16 AM EDT 7:01 PM EDT
Astronomical Twilight 5:43 AM EDT 7:34 PM EDT
Moon 6:55 AM EDT 5:58 PM EDT
Length of Visible Light 11h 38m
Length of Day
10h 39m
Tomorrow will be 2m 49s shorter.
Waning Crescent, 0% of the Moon is Illuminated
Today
Waning Crescent
Oct 23
New
Oct 30
First Quarter
Nov 6
Full
Nov 14
Last Quarter

Today's Extremes

State Highs State Lows

Community

WunderPhotos

Upload Photos

1,764,222 photos uploaded!

Nearby

Air Quality

  Air Quality AQ Index Pollutant
Thursday Good
PM2.5

Snow Depth

Station Depth Elevation
No new snow has been reported.

Earthquake Activity

City Distance Mag. Time & Date
No recent earthquake activity has been reported nearby.
Minimum magnitude displayed is 2.5.

Coastal Water Temperatures

Place Temperature
No Stations Reporting

Nearby Weather Stations